createdAt,value
2019-02-14T00:00:27.236Z,99.90
2019-02-14T00:02:56.283Z,99.90
2019-02-14T00:05:25.216Z,99.90
2019-02-14T00:07:54.061Z,99.90
2019-02-14T00:10:22.832Z,99.90
2019-02-14T00:12:52.264Z,99.90
2019-02-14T00:15:21.087Z,99.90
2019-02-14T00:17:49.857Z,99.90
2019-02-14T00:20:18.713Z,99.90
2019-02-14T00:22:48.146Z,99.90
2019-02-14T00:25:16.941Z,99.90
2019-02-14T00:27:46.102Z,99.90
2019-02-14T00:30:15.273Z,99.90
2019-02-14T00:32:44.714Z,99.90
2019-02-14T00:35:13.556Z,99.90
2019-02-14T00:37:42.332Z,99.90
2019-02-14T00:40:11.265Z,99.90
2019-02-14T00:42:40.043Z,99.90
2019-02-14T00:45:09.039Z,99.90
2019-02-14T00:47:37.857Z,99.90
2019-02-14T00:50:06.821Z,99.90
2019-02-14T00:52:35.877Z,99.90
2019-02-14T00:55:05.404Z,99.90
2019-02-14T00:57:34.187Z,99.90
2019-02-14T01:00:02.992Z,99.90
2019-02-14T01:02:31.760Z,99.90
2019-02-14T01:05:00.824Z,99.90
2019-02-14T01:07:29.726Z,99.90
2019-02-14T01:09:59.330Z,99.90
2019-02-14T01:12:28.204Z,99.90
2019-02-14T01:14:57.339Z,99.90
2019-02-14T01:17:26.424Z,99.90
2019-02-14T01:19:55.309Z,99.90
2019-02-14T01:22:24.136Z,99.90
2019-02-14T01:24:53.158Z,99.90
2019-02-14T01:27:22.298Z,99.90
2019-02-14T01:29:51.446Z,99.90
2019-02-14T01:32:20.312Z,99.90
2019-02-14T01:34:49.350Z,99.90
2019-02-14T01:37:18.145Z,99.90
2019-02-14T01:39:47.355Z,99.90
2019-02-14T01:42:16.215Z,99.90
2019-02-14T01:44:45.360Z,99.90
2019-02-14T01:47:14.158Z,99.90
2019-02-14T01:49:43.282Z,99.90
2019-02-14T01:52:12.077Z,99.90
2019-02-14T01:54:41.197Z,99.90
2019-02-14T01:57:09.975Z,99.90
2019-02-14T01:59:39.118Z,99.90
2019-02-14T02:02:07.900Z,99.90
2019-02-14T02:04:36.658Z,99.90
2019-02-14T02:07:05.963Z,99.90
2019-02-14T02:09:34.790Z,99.90
2019-02-14T02:12:03.745Z,99.90
2019-02-14T02:14:32.576Z,99.90
2019-02-14T02:17:01.311Z,99.90
2019-02-14T02:19:30.155Z,99.90
2019-02-14T02:21:58.894Z,99.90
2019-02-14T02:24:27.634Z,99.90
2019-02-14T02:26:56.775Z,99.90
2019-02-14T02:29:25.587Z,99.90
2019-02-14T02:31:54.458Z,99.90
2019-02-14T02:34:23.217Z,99.90
2019-02-14T02:36:52.014Z,99.90
2019-02-14T02:39:40.104Z,99.90
2019-02-14T02:42:08.914Z,99.90
2019-02-14T02:44:37.677Z,99.90
2019-02-14T02:47:06.815Z,99.90
2019-02-14T02:49:35.782Z,99.90
2019-02-14T02:52:04.817Z,99.90
2019-02-14T02:54:33.614Z,99.90
2019-02-14T02:57:02.798Z,99.90
2019-02-14T02:59:32.128Z,99.90
2019-02-14T03:02:01.104Z,99.90
2019-02-14T03:04:30.641Z,99.90
2019-02-14T03:06:59.411Z,99.90
2019-02-14T03:09:28.459Z,99.90
2019-02-14T03:11:57.500Z,99.90
2019-02-14T03:14:26.296Z,99.90
2019-02-14T03:16:55.319Z,99.90
2019-02-14T03:19:24.187Z,99.90
2019-02-14T03:21:53.023Z,99.90
2019-02-14T03:24:22.044Z,99.90
2019-02-14T03:26:50.830Z,99.90
2019-02-14T03:29:19.858Z,99.90
2019-02-14T03:31:48.653Z,99.90
2019-02-14T03:34:17.993Z,99.90
2019-02-14T03:36:46.860Z,99.90
2019-02-14T03:39:15.690Z,99.90
2019-02-14T03:41:44.791Z,99.90
2019-02-14T03:44:13.666Z,99.90
2019-02-14T03:46:42.554Z,99.90
2019-02-14T03:49:11.564Z,99.90
2019-02-14T03:51:40.971Z,99.90
2019-02-14T03:54:10.369Z,99.90
2019-02-14T03:56:39.441Z,99.90
2019-02-14T03:59:08.520Z,99.90
2019-02-14T04:01:37.402Z,99.90
2019-02-14T04:04:06.825Z,99.90
2019-02-14T04:06:35.977Z,99.90
2019-02-14T04:09:07.651Z,99.90
2019-02-14T04:11:36.829Z,99.90
2019-02-14T04:14:05.789Z,99.90
2019-02-14T04:16:34.973Z,99.90
2019-02-14T04:19:03.897Z,99.90
2019-02-14T04:21:32.679Z,99.90
2019-02-14T04:24:01.464Z,99.90
2019-02-14T04:26:30.321Z,99.90
2019-02-14T04:28:59.813Z,99.90
2019-02-14T04:31:28.644Z,99.90
2019-02-14T04:33:57.966Z,99.90
2019-02-14T04:36:26.752Z,99.90
2019-02-14T04:38:55.610Z,99.90
2019-02-14T04:41:24.453Z,99.90
2019-02-14T04:43:53.727Z,99.90
2019-02-14T04:46:22.525Z,99.90
2019-02-14T04:48:51.487Z,99.90
2019-02-14T04:51:20.262Z,99.90
2019-02-14T04:53:49.115Z,99.90
2019-02-14T04:56:17.916Z,99.90
2019-02-14T04:58:46.688Z,99.90
2019-02-14T05:01:15.650Z,99.90
2019-02-14T05:03:44.441Z,99.90
2019-02-14T05:06:13.705Z,99.90
2019-02-14T05:08:42.605Z,99.90
2019-02-14T05:11:11.806Z,99.90
2019-02-14T05:13:40.674Z,99.90
2019-02-14T05:16:09.542Z,99.90
2019-02-14T05:18:39.014Z,99.90
2019-02-14T05:21:08.018Z,99.90
2019-02-14T05:23:37.066Z,99.90
2019-02-14T05:26:05.941Z,99.90
2019-02-14T05:28:35.463Z,99.90
2019-02-14T05:31:04.359Z,99.90
2019-02-14T05:33:33.164Z,99.90
2019-02-14T05:36:01.971Z,99.90
2019-02-14T05:38:31.250Z,99.90
2019-02-14T05:41:00.170Z,99.90
2019-02-14T05:43:28.980Z,99.90
2019-02-14T05:45:57.832Z,99.90
2019-02-14T05:48:26.675Z,99.90
2019-02-14T05:50:55.680Z,99.90
2019-02-14T05:53:25.374Z,99.90
2019-02-14T05:55:54.574Z,99.90
2019-02-14T05:58:23.821Z,99.90
2019-02-14T06:00:52.673Z,99.90
2019-02-14T06:03:22.085Z,99.90
2019-02-14T06:05:51.030Z,99.90
2019-02-14T06:08:19.807Z,99.90
2019-02-14T06:10:48.965Z,99.90
2019-02-14T06:13:18.047Z,99.90
2019-02-14T06:15:47.247Z,99.90
2019-02-14T06:18:16.074Z,99.90
2019-02-14T06:20:45.215Z,99.90
2019-02-14T06:23:14.123Z,99.90
2019-02-14T06:25:43.203Z,99.90
2019-02-14T06:28:11.993Z,99.90
2019-02-14T06:30:41.083Z,99.90
2019-02-14T06:33:10.486Z,99.90
2019-02-14T06:35:40.123Z,99.90
2019-02-14T06:38:09.270Z,99.90
2019-02-14T06:40:38.103Z,99.90
2019-02-14T06:43:06.953Z,99.90
2019-02-14T06:45:36.078Z,99.90
2019-02-14T06:48:05.254Z,99.90
2019-02-14T06:50:34.993Z,99.90
2019-02-14T06:53:04.261Z,99.90
2019-02-14T06:55:33.036Z,99.90
2019-02-14T06:58:01.914Z,99.90
2019-02-14T07:00:31.252Z,99.90
2019-02-14T07:03:00.066Z,99.90
2019-02-14T07:05:29.271Z,99.90
2019-02-14T07:07:58.433Z,99.90
2019-02-14T07:10:27.294Z,99.90
2019-02-14T07:12:56.376Z,99.90
2019-02-14T07:15:25.231Z,99.90
2019-02-14T07:17:54.266Z,99.90
2019-02-14T07:20:23.137Z,99.90
2019-02-14T07:23:11.271Z,99.90
2019-02-14T07:25:40.513Z,99.90
2019-02-14T07:28:09.445Z,99.90
2019-02-14T07:30:38.415Z,99.90
2019-02-14T07:33:07.444Z,99.90
2019-02-14T07:35:36.405Z,99.90
2019-02-14T07:38:05.435Z,99.90
2019-02-14T07:40:34.478Z,99.90
2019-02-14T07:43:03.683Z,99.90
2019-02-14T07:45:32.517Z,99.90
2019-02-14T07:48:01.310Z,99.90
2019-02-14T07:50:30.186Z,99.90
2019-02-14T07:52:59.329Z,99.90
2019-02-14T07:55:28.188Z,99.90
2019-02-14T07:57:57.127Z,99.90
2019-02-14T08:00:25.925Z,99.90
2019-02-14T08:02:56.332Z,99.90
2019-02-14T08:05:25.520Z,99.90
2019-02-14T08:07:54.640Z,99.90
2019-02-14T08:10:23.505Z,99.90
2019-02-14T08:12:52.481Z,99.90
2019-02-14T08:15:21.349Z,99.90
2019-02-14T08:17:50.158Z,99.90
2019-02-14T08:20:19.114Z,99.90
2019-02-14T08:22:48.685Z,99.90
2019-02-14T08:25:17.580Z,99.90
2019-02-14T08:27:46.341Z,99.90
2019-02-14T08:30:15.817Z,99.90
2019-02-14T08:32:44.680Z,99.90
2019-02-14T08:35:13.589Z,99.90
2019-02-14T08:37:45.382Z,99.90
2019-02-14T08:40:16.175Z,99.90
2019-02-14T08:42:45.405Z,99.90
2019-02-14T08:45:14.257Z,99.90
2019-02-14T08:47:43.060Z,99.90
2019-02-14T08:50:12.085Z,99.90
2019-02-14T08:52:40.901Z,99.90
2019-02-14T08:55:10.236Z,99.90
2019-02-14T08:57:39.112Z,99.90
2019-02-14T09:00:10.667Z,99.90
2019-02-14T09:02:39.931Z,99.90
2019-02-14T09:05:09.015Z,99.90
2019-02-14T09:07:38.240Z,99.90
2019-02-14T09:10:09.065Z,99.90
2019-02-14T09:12:37.887Z,99.90
2019-02-14T09:15:07.602Z,99.90
2019-02-14T09:17:36.669Z,99.90
2019-02-14T09:20:06.986Z,99.90
2019-02-14T09:22:35.785Z,99.90
2019-02-14T09:25:05.045Z,99.90
2019-02-14T09:27:33.868Z,99.90
2019-02-14T09:30:03.037Z,99.90
2019-02-14T09:32:32.198Z,99.90
2019-02-14T09:35:00.984Z,99.90
2019-02-14T09:37:29.860Z,99.90
2019-02-14T09:39:58.629Z,99.90
2019-02-14T09:42:29.142Z,99.90
2019-02-14T09:44:58.288Z,99.90
2019-02-14T09:47:27.394Z,99.90
2019-02-14T09:49:56.468Z,99.90
2019-02-14T09:52:25.999Z,99.90
2019-02-14T09:54:54.865Z,99.90
2019-02-14T09:57:23.648Z,99.90
2019-02-14T09:59:52.502Z,99.90
2019-02-14T10:02:22.399Z,99.90
2019-02-14T10:04:51.839Z,99.90
2019-02-14T10:07:20.957Z,99.90
2019-02-14T10:09:50.131Z,99.90
2019-02-14T10:12:19.044Z,99.90
2019-02-14T10:14:48.001Z,99.90
2019-02-14T10:17:22.277Z,99.90
2019-02-14T10:19:47.723Z,99.40
2019-02-14T10:22:17.120Z,99.90
2019-02-14T10:24:46.447Z,99.90
2019-02-14T10:27:15.307Z,99.00
2019-02-14T10:29:44.193Z,97.50
2019-02-14T10:32:13.199Z,98.20
2019-02-14T10:34:46.847Z,99.90
2019-02-14T10:37:16.527Z,99.90
2019-02-14T10:39:45.848Z,98.40
2019-02-14T10:42:15.209Z,94.10
2019-02-14T10:44:44.461Z,94.20
2019-02-14T10:47:14.582Z,90.50
2019-02-14T10:49:44.019Z,88.90
2019-02-14T10:52:13.100Z,89.10
2019-02-14T10:54:42.182Z,92.00
2019-02-14T10:57:11.498Z,92.80
2019-02-14T10:59:41.250Z,90.00
2019-02-14T11:02:10.887Z,84.40
2019-02-14T11:04:40.178Z,78.60
2019-02-14T11:07:09.494Z,79.70
2019-02-14T11:09:38.827Z,84.20
2019-02-14T11:12:08.364Z,86.10
2019-02-14T11:14:37.652Z,90.50
2019-02-14T11:17:07.742Z,90.70
2019-02-14T11:19:37.831Z,90.10
2019-02-14T11:22:07.255Z,91.40
2019-02-14T11:24:36.032Z,86.70
2019-02-14T11:27:06.386Z,83.00
2019-02-14T11:29:37.027Z,84.30
2019-02-14T11:32:07.288Z,92.50
2019-02-14T11:34:37.324Z,88.80
2019-02-14T11:37:06.273Z,86.00
2019-02-14T11:39:35.250Z,85.90
2019-02-14T11:42:04.848Z,90.10
2019-02-14T11:44:39.723Z,92.70
2019-02-14T11:47:04.583Z,92.40
2019-02-14T11:49:33.551Z,95.10
2019-02-14T11:52:03.291Z,97.40
2019-02-14T11:54:32.294Z,99.90
2019-02-14T11:57:01.392Z,99.90
2019-02-14T11:59:30.455Z,99.90
2019-02-14T12:01:59.397Z,99.90
2019-02-14T12:04:28.316Z,99.90
2019-02-14T12:06:57.237Z,99.90
2019-02-14T12:09:26.095Z,99.90
2019-02-14T12:11:55.211Z,99.90
2019-02-14T12:14:24.084Z,99.90
2019-02-14T12:16:53.008Z,99.90
2019-02-14T12:19:21.967Z,99.90
2019-02-14T12:21:51.063Z,99.90
2019-02-14T12:24:19.917Z,99.90
2019-02-14T12:26:48.693Z,99.90
2019-02-14T12:29:17.766Z,99.90
2019-02-14T12:31:46.961Z,99.90
2019-02-14T12:34:16.033Z,99.90
2019-02-14T12:36:44.811Z,99.90
2019-02-14T12:39:13.570Z,99.90
2019-02-14T12:41:42.500Z,99.90
2019-02-14T12:44:11.365Z,99.90
2019-02-14T12:46:40.132Z,99.90
2019-02-14T12:49:08.955Z,99.90
2019-02-14T12:51:37.722Z,99.90
2019-02-14T12:54:06.843Z,99.90
2019-02-14T12:56:35.725Z,99.90
2019-02-14T12:59:04.762Z,99.90
2019-02-14T13:01:33.543Z,99.90
2019-02-14T13:04:02.353Z,99.90
2019-02-14T13:06:31.495Z,99.90
2019-02-14T13:09:00.366Z,99.90
2019-02-14T13:11:29.141Z,99.90
2019-02-14T13:13:57.910Z,99.90
2019-02-14T13:16:26.953Z,99.90
2019-02-14T13:18:55.708Z,99.90
2019-02-14T13:21:24.638Z,99.90
2019-02-14T13:23:53.717Z,99.90
2019-02-14T13:26:22.490Z,99.90
2019-02-14T13:28:51.523Z,99.90
2019-02-14T13:31:20.303Z,99.90
2019-02-14T13:33:49.072Z,99.90
2019-02-14T13:36:17.966Z,99.90
2019-02-14T13:38:46.745Z,99.90
2019-02-14T13:41:15.926Z,99.90
2019-02-14T13:43:44.761Z,99.90
2019-02-14T13:46:13.708Z,99.90
2019-02-14T13:48:42.489Z,99.90
2019-02-14T13:51:11.568Z,99.90
2019-02-14T13:53:40.418Z,99.90
2019-02-14T13:56:09.360Z,99.90
2019-02-14T13:58:38.214Z,99.90
2019-02-14T14:01:07.727Z,99.90
2019-02-14T14:03:36.761Z,99.90
2019-02-14T14:06:05.784Z,99.90
2019-02-14T14:08:34.789Z,99.90
2019-02-14T14:11:03.863Z,99.90
2019-02-14T14:13:32.726Z,99.90
2019-02-14T14:16:01.618Z,99.90
2019-02-14T14:18:30.734Z,99.90
2019-02-14T14:21:00.156Z,99.90
2019-02-14T14:23:28.945Z,99.90
2019-02-14T14:25:58.843Z,99.90
2019-02-14T14:28:27.627Z,99.90
2019-02-14T14:30:56.381Z,99.90
2019-02-14T14:33:25.223Z,99.90
2019-02-14T14:35:54.050Z,99.90
2019-02-14T14:38:22.830Z,99.90
2019-02-14T14:40:51.660Z,99.90
2019-02-14T14:43:32.718Z,99.90
2019-02-14T14:46:14.998Z,99.90
2019-02-14T14:48:44.245Z,99.90
2019-02-14T14:51:13.656Z,99.90
2019-02-14T14:53:42.577Z,99.90
2019-02-14T14:56:11.342Z,99.90
2019-02-14T14:58:40.126Z,99.90
2019-02-14T15:01:08.972Z,99.90
2019-02-14T15:03:38.016Z,99.90
2019-02-14T15:06:07.281Z,99.90
2019-02-14T15:08:36.190Z,99.90
2019-02-14T15:11:05.466Z,99.90
2019-02-14T15:13:34.388Z,99.90
2019-02-14T15:16:03.445Z,99.90
2019-02-14T15:18:32.451Z,99.90
2019-02-14T15:21:01.381Z,99.90
2019-02-14T15:23:30.241Z,99.90
2019-02-14T15:25:59.241Z,99.90
2019-02-14T15:28:28.404Z,99.90
2019-02-14T15:30:57.559Z,99.90
2019-02-14T15:33:26.739Z,99.90
2019-02-14T15:35:55.665Z,99.90
2019-02-14T15:38:24.681Z,99.90
2019-02-14T15:40:53.870Z,99.90
2019-02-14T15:43:22.741Z,99.90
2019-02-14T15:45:52.001Z,99.90
2019-02-14T15:48:21.262Z,99.90
2019-02-14T15:50:51.492Z,99.90
2019-02-14T15:53:21.597Z,99.90
2019-02-14T15:55:50.867Z,99.90
2019-02-14T15:58:19.826Z,99.90
2019-02-14T16:00:50.029Z,99.90
2019-02-14T16:03:19.743Z,99.90
2019-02-14T16:05:49.253Z,99.90
2019-02-14T16:08:19.658Z,99.90
2019-02-14T16:10:53.404Z,99.90
2019-02-14T16:13:20.129Z,99.90
2019-02-14T16:15:49.353Z,99.90
2019-02-14T16:18:18.269Z,99.90
2019-02-14T16:20:47.076Z,99.90
2019-02-14T16:23:16.222Z,99.90
2019-02-14T16:25:45.290Z,99.90
2019-02-14T16:28:14.103Z,99.90
2019-02-14T16:30:42.996Z,99.90
2019-02-14T16:33:12.172Z,99.90
2019-02-14T16:35:40.961Z,99.90
2019-02-14T16:38:11.773Z,99.90
2019-02-14T16:40:40.541Z,99.90
2019-02-14T16:43:09.397Z,99.90
2019-02-14T16:45:39.277Z,99.90
2019-02-14T16:48:08.056Z,99.90
2019-02-14T16:50:37.123Z,99.90
2019-02-14T16:53:06.210Z,99.90
2019-02-14T16:55:34.970Z,99.90
2019-02-14T16:58:03.820Z,99.90
2019-02-14T17:00:33.456Z,99.90
2019-02-14T17:03:02.396Z,99.90
2019-02-14T17:05:31.494Z,99.90
2019-02-14T17:08:01.976Z,99.90
2019-02-14T17:10:36.774Z,99.90
2019-02-14T17:13:01.651Z,99.90
2019-02-14T17:15:30.546Z,99.90
2019-02-14T17:17:59.802Z,99.90
2019-02-14T17:20:29.281Z,99.90
2019-02-14T17:22:58.977Z,99.90
2019-02-14T17:25:28.889Z,99.90
2019-02-14T17:28:01.113Z,99.90
2019-02-14T17:30:30.418Z,99.90
2019-02-14T17:33:00.226Z,99.90
2019-02-14T17:35:29.412Z,99.90
2019-02-14T17:37:58.341Z,99.90
2019-02-14T17:40:27.386Z,99.90
2019-02-14T17:42:56.261Z,99.90
2019-02-14T17:45:25.438Z,99.90
2019-02-14T17:47:54.267Z,99.90
2019-02-14T17:50:23.143Z,99.90
2019-02-14T17:52:52.220Z,99.90
2019-02-14T17:55:21.028Z,99.90
2019-02-14T17:57:50.616Z,99.90
2019-02-14T18:00:19.562Z,99.90
2019-02-14T18:02:48.659Z,99.90
2019-02-14T18:05:17.506Z,99.90
2019-02-14T18:07:46.385Z,99.90
2019-02-14T18:10:54.707Z,99.90
2019-02-14T18:13:19.241Z,99.90
2019-02-14T18:15:48.024Z,99.90
2019-02-14T18:18:16.873Z,99.90
2019-02-14T18:20:46.174Z,99.90
2019-02-14T18:23:14.988Z,99.90
2019-02-14T18:25:44.690Z,99.90
2019-02-14T18:28:15.123Z,99.90
2019-02-14T18:30:44.097Z,99.90
2019-02-14T18:33:25.589Z,99.90
2019-02-14T18:35:54.797Z,99.90
2019-02-14T18:38:23.787Z,99.90
2019-02-14T18:40:53.059Z,99.90
2019-02-14T18:43:22.683Z,99.90
2019-02-14T18:45:51.781Z,99.90
2019-02-14T18:48:21.912Z,99.90
2019-02-14T18:50:51.951Z,99.90
2019-02-14T18:53:22.607Z,99.90
2019-02-14T18:55:52.452Z,99.90
2019-02-14T18:58:26.400Z,99.90
2019-02-14T19:00:52.805Z,99.90
2019-02-14T19:03:22.497Z,99.90
2019-02-14T19:05:52.044Z,99.90
2019-02-14T19:08:21.525Z,99.90
2019-02-14T19:10:50.636Z,99.90
2019-02-14T19:13:19.515Z,99.90
2019-02-14T19:15:48.378Z,99.90
2019-02-14T19:18:17.834Z,99.90
2019-02-14T19:20:50.302Z,99.90
2019-02-14T19:23:24.204Z,99.90
2019-02-14T19:25:50.506Z,99.90
2019-02-14T19:28:19.309Z,99.90
2019-02-14T19:30:48.164Z,99.90
2019-02-14T19:33:17.175Z,99.90
2019-02-14T19:35:46.501Z,99.90
2019-02-14T19:38:15.667Z,99.90
2019-02-14T19:40:44.606Z,99.90
2019-02-14T19:43:13.897Z,99.90
2019-02-14T19:45:43.555Z,99.90
2019-02-14T19:48:12.737Z,99.90
2019-02-14T19:50:41.852Z,99.90
2019-02-14T19:53:10.926Z,99.90
2019-02-14T19:55:40.023Z,99.90
2019-02-14T19:58:08.945Z,99.90
2019-02-14T20:00:37.897Z,99.90
2019-02-14T20:03:07.011Z,99.90
2019-02-14T20:05:36.051Z,99.90
2019-02-14T20:08:05.606Z,99.90
2019-02-14T20:10:34.489Z,99.90
2019-02-14T20:13:03.370Z,99.90
2019-02-14T20:15:37.246Z,99.90
2019-02-14T20:18:03.225Z,99.90
2019-02-14T20:20:32.133Z,99.90
2019-02-14T20:25:58.056Z,99.90
2019-02-14T20:28:27.051Z,99.90
2019-02-14T20:31:30.674Z,99.90
2019-02-14T20:33:59.465Z,99.90
2019-02-14T20:36:28.248Z,99.90
2019-02-14T20:38:57.114Z,99.90
2019-02-14T20:41:30.825Z,99.90
2019-02-14T20:44:00.738Z,99.90
2019-02-14T20:46:30.034Z,99.90
2019-02-14T20:48:59.298Z,99.90
2019-02-14T20:51:38.079Z,99.90
2019-02-14T20:53:59.465Z,99.90
2019-02-14T20:56:28.375Z,99.90
2019-02-14T20:58:57.734Z,99.90
2019-02-14T21:01:27.382Z,99.90
2019-02-14T21:03:56.645Z,99.90
2019-02-14T21:06:26.054Z,99.90
2019-02-14T21:08:55.520Z,99.90
2019-02-14T21:11:39.414Z,99.90
2019-02-14T21:14:08.617Z,99.90
2019-02-14T21:16:37.503Z,99.90
2019-02-14T21:19:06.403Z,99.90
2019-02-14T21:21:35.509Z,99.90
2019-02-14T21:24:04.583Z,99.90
2019-02-14T21:26:33.733Z,99.90
2019-02-14T21:29:03.069Z,99.90
2019-02-14T21:31:33.203Z,99.90
2019-02-14T21:34:02.207Z,99.90
2019-02-14T21:36:35.270Z,99.90
2019-02-14T21:39:05.420Z,99.90
2019-02-14T21:41:34.979Z,99.90
2019-02-14T21:44:09.351Z,99.90
2019-02-14T21:46:38.297Z,99.90
2019-02-14T21:49:08.608Z,99.90
2019-02-14T21:51:53.454Z,99.90
2019-02-14T21:54:54.663Z,99.90
2019-02-14T21:57:45.458Z,99.90
2019-02-14T22:00:17.562Z,99.90
2019-02-14T22:02:52.024Z,99.90
2019-02-14T22:05:25.160Z,99.90
2019-02-14T22:07:56.183Z,99.90
2019-02-14T22:10:25.580Z,99.90
2019-02-14T22:12:59.591Z,99.90
2019-02-14T22:15:36.723Z,99.90
2019-02-14T22:18:06.191Z,99.90
2019-02-14T22:20:35.676Z,99.90
2019-02-14T22:23:04.953Z,99.90
2019-02-14T22:25:33.753Z,99.90
2019-02-14T22:28:02.801Z,99.90
2019-02-14T22:30:31.917Z,99.90
2019-02-14T22:33:00.816Z,99.90
2019-02-14T22:35:29.729Z,99.90
2019-02-14T22:37:59.071Z,99.90
2019-02-14T22:40:28.248Z,99.90
2019-02-14T22:42:57.065Z,99.90
2019-02-14T22:45:26.506Z,99.90
2019-02-14T22:47:55.722Z,99.90
2019-02-14T22:50:24.497Z,99.90
2019-02-14T22:52:53.474Z,99.90
2019-02-14T22:55:22.286Z,99.90
2019-02-14T22:57:51.092Z,99.90
2019-02-14T23:00:29.357Z,99.90
2019-02-14T23:02:58.260Z,99.90
2019-02-14T23:05:27.070Z,99.90
2019-02-14T23:07:56.126Z,99.90
2019-02-14T23:10:24.962Z,99.90
2019-02-14T23:12:55.864Z,99.90
2019-02-14T23:15:24.750Z,99.90
2019-02-14T23:17:53.996Z,99.90
2019-02-14T23:20:22.873Z,99.90
2019-02-14T23:22:52.085Z,99.90
2019-02-14T23:25:21.021Z,99.90
2019-02-14T23:27:49.941Z,99.90
2019-02-14T23:30:18.724Z,99.90
2019-02-14T23:32:47.792Z,99.90
2019-02-14T23:35:16.713Z,99.90
2019-02-14T23:37:45.653Z,99.90
2019-02-14T23:40:14.669Z,99.90
2019-02-14T23:42:43.758Z,99.90
2019-02-14T23:45:12.699Z,99.90
2019-02-14T23:47:41.744Z,99.90
2019-02-14T23:50:10.692Z,99.90
2019-02-14T23:52:39.473Z,99.90
2019-02-14T23:55:08.676Z,99.90
2019-02-14T23:57:37.859Z,99.90
